sensor_id;sensor_type;location;lat;lon;timestamp;pressure;altitude;pressure_sealevel;temperature;humidity
41234;BME280;26968;42.686;23.352;2024-03-07T00:00:34;95028.22;;;8.33;81.53
41234;BME280;26968;42.686;23.352;2024-03-07T00:02:59;95036.25;;;8.30;81.26
41234;BME280;26968;42.686;23.352;2024-03-07T00:05:25;95026.41;;;8.19;82.19
41234;BME280;26968;42.686;23.352;2024-03-07T00:07:52;95022.13;;;8.26;81.99
41234;BME280;26968;42.686;23.352;2024-03-07T00:10:17;95011.28;;;8.16;82.80
41234;BME280;26968;42.686;23.352;2024-03-07T00:12:43;95030.22;;;8.23;82.71
41234;BME280;26968;42.686;23.352;2024-03-07T00:15:12;95001.16;;;8.00;81.65
41234;BME280;26968;42.686;23.352;2024-03-07T00:17:38;95029.13;;;8.03;82.16
41234;BME280;26968;42.686;23.352;2024-03-07T00:20:05;95025.25;;;8.07;82.99
41234;BME280;26968;42.686;23.352;2024-03-07T00:22:37;95009.50;;;8.02;83.34
41234;BME280;26968;42.686;23.352;2024-03-07T00:25:03;95015.56;;;8.09;83.53
41234;BME280;26968;42.686;23.352;2024-03-07T00:27:31;95000.69;;;7.96;82.91
41234;BME280;26968;42.686;23.352;2024-03-07T00:29:58;95008.59;;;7.95;83.26
41234;BME280;26968;42.686;23.352;2024-03-07T00:32:26;94997.69;;;7.93;82.87
41234;BME280;26968;42.686;23.352;2024-03-07T00:34:55;95001.25;;;8.06;83.86
41234;BME280;26968;42.686;23.352;2024-03-07T00:37:24;94996.16;;;7.84;82.55
41234;BME280;26968;42.686;23.352;2024-03-07T00:39:52;94977.31;;;7.68;82.87
41234;BME280;26968;42.686;23.352;2024-03-07T00:42:18;95002.84;;;7.93;83.22
41234;BME280;26968;42.686;23.352;2024-03-07T00:44:43;94995.47;;;7.90;83.58
41234;BME280;26968;42.686;23.352;2024-03-07T00:47:08;95007.03;;;7.94;84.67
41234;BME280;26968;42.686;23.352;2024-03-07T00:49:34;95001.06;;;7.93;84.10
41234;BME280;26968;42.686;23.352;2024-03-07T00:51:59;95002.13;;;7.99;84.71
41234;BME280;26968;42.686;23.352;2024-03-07T00:54:25;94994.66;;;7.89;83.92
41234;BME280;26968;42.686;23.352;2024-03-07T00:56:51;94999.88;;;7.96;83.57
41234;BME280;26968;42.686;23.352;2024-03-07T00:59:16;94984.69;;;7.86;82.61
41234;BME280;26968;42.686;23.352;2024-03-07T01:01:42;94994.84;;;8.02;82.43
41234;BME280;26968;42.686;23.352;2024-03-07T01:04:07;94960.91;;;7.84;82.29
41234;BME280;26968;42.686;23.352;2024-03-07T01:06:36;94980.88;;;7.97;82.91
41234;BME280;26968;42.686;23.352;2024-03-07T01:09:03;94972.81;;;8.00;82.08
41234;BME280;26968;42.686;23.352;2024-03-07T01:11:29;94974.25;;;8.02;82.67
41234;BME280;26968;42.686;23.352;2024-03-07T01:13:54;94975.31;;;8.08;82.45
41234;BME280;26968;42.686;23.352;2024-03-07T01:16:21;94972.81;;;8.00;82.69
41234;BME280;26968;42.686;23.352;2024-03-07T01:18:47;94973.78;;;7.99;83.35
41234;BME280;26968;42.686;23.352;2024-03-07T01:21:12;94979.03;;;8.05;82.88
41234;BME280;26968;42.686;23.352;2024-03-07T01:23:38;94970.88;;;8.02;82.52
41234;BME280;26968;42.686;23.352;2024-03-07T01:26:04;94949.44;;;7.87;81.98
41234;BME280;26968;42.686;23.352;2024-03-07T01:28:29;94974.50;;;7.93;81.80
41234;BME280;26968;42.686;23.352;2024-03-07T01:30:56;94970.06;;;7.87;82.92
41234;BME280;26968;42.686;23.352;2024-03-07T01:33:22;94970.16;;;7.93;82.15
41234;BME280;26968;42.686;23.352;2024-03-07T01:35:48;94946.25;;;7.85;82.45
41234;BME280;26968;42.686;23.352;2024-03-07T01:38:14;94970.59;;;7.97;82.21
41234;BME280;26968;42.686;23.352;2024-03-07T01:40:40;94958.50;;;7.83;82.44
41234;BME280;26968;42.686;23.352;2024-03-07T01:43:07;94946.69;;;7.73;82.51
41234;BME280;26968;42.686;23.352;2024-03-07T01:45:32;94959.06;;;7.93;83.29
41234;BME280;26968;42.686;23.352;2024-03-07T01:47:58;94954.59;;;7.87;82.48
41234;BME280;26968;42.686;23.352;2024-03-07T01:50:24;94957.97;;;7.87;81.90
41234;BME280;26968;42.686;23.352;2024-03-07T01:52:49;94948.75;;;7.78;81.72
41234;BME280;26968;42.686;23.352;2024-03-07T01:55:22;94938.44;;;7.63;83.73
41234;BME280;26968;42.686;23.352;2024-03-07T01:57:49;94945.25;;;7.71;82.28
41234;BME280;26968;42.686;23.352;2024-03-07T02:00:14;94953.63;;;7.73;81.88
41234;BME280;26968;42.686;23.352;2024-03-07T02:02:40;94961.63;;;7.78;82.59
41234;BME280;26968;42.686;23.352;2024-03-07T02:05:06;94969.06;;;7.88;81.81
41234;BME280;26968;42.686;23.352;2024-03-07T02:07:32;94979.81;;;7.76;82.12
41234;BME280;26968;42.686;23.352;2024-03-07T02:10:01;94972.63;;;7.87;82.03
41234;BME280;26968;42.686;23.352;2024-03-07T02:12:27;94972.50;;;7.80;82.81
41234;BME280;26968;42.686;23.352;2024-03-07T02:14:55;94942.84;;;7.55;82.42
41234;BME280;26968;42.686;23.352;2024-03-07T02:17:21;94959.38;;;7.60;82.58
41234;BME280;26968;42.686;23.352;2024-03-07T02:19:47;94968.69;;;7.61;81.54
41234;BME280;26968;42.686;23.352;2024-03-07T02:22:12;94961.94;;;7.60;82.64
41234;BME280;26968;42.686;23.352;2024-03-07T02:24:38;94964.50;;;7.46;83.49
41234;BME280;26968;42.686;23.352;2024-03-07T02:27:04;94959.38;;;7.60;82.79
41234;BME280;26968;42.686;23.352;2024-03-07T02:29:29;94950.09;;;7.51;81.58
41234;BME280;26968;42.686;23.352;2024-03-07T02:31:56;94928.97;;;7.41;81.44
41234;BME280;26968;42.686;23.352;2024-03-07T02:34:21;94951.03;;;7.58;82.48
41234;BME280;26968;42.686;23.352;2024-03-07T02:36:47;94940.78;;;7.50;80.63
41234;BME280;26968;42.686;23.352;2024-03-07T02:39:12;94954.56;;;7.57;81.82
41234;BME280;26968;42.686;23.352;2024-03-07T02:41:38;94951.88;;;7.51;81.74
41234;BME280;26968;42.686;23.352;2024-03-07T02:44:03;94971.69;;;7.65;82.13
41234;BME280;26968;42.686;23.352;2024-03-07T02:46:29;94966.13;;;7.61;81.44
41234;BME280;26968;42.686;23.352;2024-03-07T02:48:54;94975.25;;;7.64;79.70
41234;BME280;26968;42.686;23.352;2024-03-07T02:51:20;94956.94;;;7.44;78.20
41234;BME280;26968;42.686;23.352;2024-03-07T02:53:46;94956.41;;;7.49;80.37
41234;BME280;26968;42.686;23.352;2024-03-07T02:56:11;94970.47;;;7.61;79.70
41234;BME280;26968;42.686;23.352;2024-03-07T02:58:36;94950.34;;;7.41;81.12
41234;BME280;26968;42.686;23.352;2024-03-07T03:01:02;94971.66;;;7.50;81.56
41234;BME280;26968;42.686;23.352;2024-03-07T03:03:31;94961.44;;;7.42;80.85
41234;BME280;26968;42.686;23.352;2024-03-07T03:05:56;94978.88;;;7.55;81.41
41234;BME280;26968;42.686;23.352;2024-03-07T03:08:23;94973.56;;;7.33;81.08
41234;BME280;26968;42.686;23.352;2024-03-07T03:10:49;94971.53;;;7.29;81.64
41234;BME280;26968;42.686;23.352;2024-03-07T03:13:18;94983.34;;;7.38;80.64
41234;BME280;26968;42.686;23.352;2024-03-07T03:15:43;94977.22;;;7.39;79.78
41234;BME280;26968;42.686;23.352;2024-03-07T03:18:09;94974.84;;;7.37;79.33
41234;BME280;26968;42.686;23.352;2024-03-07T03:20:35;94982.03;;;7.42;80.86
41234;BME280;26968;42.686;23.352;2024-03-07T03:23:04;94965.59;;;7.28;80.51
41234;BME280;26968;42.686;23.352;2024-03-07T03:25:31;94987.53;;;7.39;80.56
41234;BME280;26968;42.686;23.352;2024-03-07T03:28:06;94979.94;;;7.23;81.50
41234;BME280;26968;42.686;23.352;2024-03-07T03:30:37;94996.56;;;7.35;80.16
41234;BME280;26968;42.686;23.352;2024-03-07T03:33:02;94986.81;;;7.30;81.60
41234;BME280;26968;42.686;23.352;2024-03-07T03:35:28;94988.25;;;7.33;80.35
41234;BME280;26968;42.686;23.352;2024-03-07T03:37:53;94983.81;;;7.19;82.04
41234;BME280;26968;42.686;23.352;2024-03-07T03:40:19;95003.72;;;7.25;81.10
41234;BME280;26968;42.686;23.352;2024-03-07T03:42:44;95001.50;;;6.99;80.71
41234;BME280;26968;42.686;23.352;2024-03-07T03:45:10;95005.91;;;7.13;81.13
41234;BME280;26968;42.686;23.352;2024-03-07T03:47:41;94989.22;;;6.78;81.61
41234;BME280;26968;42.686;23.352;2024-03-07T03:50:09;94968.56;;;6.72;82.48
41234;BME280;26968;42.686;23.352;2024-03-07T03:52:36;94967.28;;;6.90;80.70
41234;BME280;26968;42.686;23.352;2024-03-07T03:55:03;94969.84;;;6.90;81.38
41234;BME280;26968;42.686;23.352;2024-03-07T03:57:31;94975.50;;;6.63;80.36
41234;BME280;26968;42.686;23.352;2024-03-07T03:59:57;94953.38;;;6.54;82.13
41234;BME280;26968;42.686;23.352;2024-03-07T04:02:23;94963.03;;;6.44;81.41
41234;BME280;26968;42.686;23.352;2024-03-07T04:04:49;94981.34;;;6.49;82.04
41234;BME280;26968;42.686;23.352;2024-03-07T04:07:15;94975.00;;;6.59;81.61
41234;BME280;26968;42.686;23.352;2024-03-07T04:09:44;94983.50;;;6.68;82.13
41234;BME280;26968;42.686;23.352;2024-03-07T04:12:11;94972.91;;;6.63;80.68
41234;BME280;26968;42.686;23.352;2024-03-07T04:14:39;94962.69;;;6.55;81.10
41234;BME280;26968;42.686;23.352;2024-03-07T04:17:06;94958.00;;;6.58;80.82
41234;BME280;26968;42.686;23.352;2024-03-07T04:19:35;94994.06;;;6.73;80.49
41234;BME280;26968;42.686;23.352;2024-03-07T04:22:01;94990.34;;;6.76;80.76
41234;BME280;26968;42.686;23.352;2024-03-07T04:24:29;94981.56;;;6.70;79.65
41234;BME280;26968;42.686;23.352;2024-03-07T04:26:58;94983.50;;;6.68;78.68
41234;BME280;26968;42.686;23.352;2024-03-07T04:29:24;94994.03;;;6.81;79.50
41234;BME280;26968;42.686;23.352;2024-03-07T04:31:50;94990.81;;;6.79;80.60
41234;BME280;26968;42.686;23.352;2024-03-07T04:34:16;94987.28;;;6.80;79.40
41234;BME280;26968;42.686;23.352;2024-03-07T04:36:41;94982.78;;;6.51;78.95
41234;BME280;26968;42.686;23.352;2024-03-07T04:39:07;94976.25;;;6.41;79.93
41234;BME280;26968;42.686;23.352;2024-03-07T04:41:48;94987.59;;;6.46;80.46
41234;BME280;26968;42.686;23.352;2024-03-07T04:44:13;94965.41;;;6.22;80.02
41234;BME280;26968;42.686;23.352;2024-03-07T04:46:39;94987.19;;;6.26;79.64
41234;BME280;26968;42.686;23.352;2024-03-07T04:49:08;94975.03;;;6.20;80.62
41234;BME280;26968;42.686;23.352;2024-03-07T04:51:34;94995.53;;;6.37;79.87
41234;BME280;26968;42.686;23.352;2024-03-07T04:54:00;94987.97;;;6.35;80.30
41234;BME280;26968;42.686;23.352;2024-03-07T04:56:26;94998.72;;;6.39;80.16
41234;BME280;26968;42.686;23.352;2024-03-07T04:58:51;94989.00;;;6.26;79.31
41234;BME280;26968;42.686;23.352;2024-03-07T05:01:18;94995.38;;;6.30;78.55
41234;BME280;26968;42.686;23.352;2024-03-07T05:03:43;94984.50;;;6.20;79.70
41234;BME280;26968;42.686;23.352;2024-03-07T05:06:09;94998.00;;;6.22;79.81
41234;BME280;26968;42.686;23.352;2024-03-07T05:08:34;95024.47;;;6.14;79.75
41234;BME280;26968;42.686;23.352;2024-03-07T05:11:00;95013.75;;;6.03;81.20
41234;BME280;26968;42.686;23.352;2024-03-07T05:13:25;95010.03;;;6.13;80.65
41234;BME280;26968;42.686;23.352;2024-03-07T05:15:51;95011.47;;;6.24;81.16
41234;BME280;26968;42.686;23.352;2024-03-07T05:18:18;95005.66;;;6.30;79.16
41234;BME280;26968;42.686;23.352;2024-03-07T05:20:43;95005.69;;;6.22;79.69
41234;BME280;26968;42.686;23.352;2024-03-07T05:23:09;94997.47;;;6.26;80.02
41234;BME280;26968;42.686;23.352;2024-03-07T05:25:36;95006.19;;;6.17;79.98
41234;BME280;26968;42.686;23.352;2024-03-07T05:28:01;95019.78;;;6.34;78.97
41234;BME280;26968;42.686;23.352;2024-03-07T05:30:30;95018.22;;;6.25;78.48
41234;BME280;26968;42.686;23.352;2024-03-07T05:32:57;95032.63;;;6.34;79.49
41234;BME280;26968;42.686;23.352;2024-03-07T05:35:23;95032.63;;;6.34;78.55
41234;BME280;26968;42.686;23.352;2024-03-07T05:37:49;95021.13;;;6.14;79.03
41234;BME280;26968;42.686;23.352;2024-03-07T05:40:16;95011.00;;;6.20;78.87
41234;BME280;26968;42.686;23.352;2024-03-07T05:42:41;95026.03;;;6.40;77.65
41234;BME280;26968;42.686;23.352;2024-03-07T05:45:08;95023.34;;;6.25;79.58
41234;BME280;26968;42.686;23.352;2024-03-07T05:47:34;95027.47;;;6.34;78.27
41234;BME280;26968;42.686;23.352;2024-03-07T05:50:00;95031.03;;;6.33;78.80
41234;BME280;26968;42.686;23.352;2024-03-07T05:52:26;95031.19;;;6.31;78.96
41234;BME280;26968;42.686;23.352;2024-03-07T05:54:55;95001.38;;;6.14;78.14
41234;BME280;26968;42.686;23.352;2024-03-07T05:57:22;95015.59;;;6.33;77.63
41234;BME280;26968;42.686;23.352;2024-03-07T05:59:48;95030.50;;;6.46;77.56
41234;BME280;26968;42.686;23.352;2024-03-07T06:02:14;95004.53;;;6.32;78.77
41234;BME280;26968;42.686;23.352;2024-03-07T06:04:42;95044.78;;;6.48;78.09
41234;BME280;26968;42.686;23.352;2024-03-07T06:07:08;95033.06;;;6.46;76.49
41234;BME280;26968;42.686;23.352;2024-03-07T06:09:36;95013.53;;;6.28;77.79
41234;BME280;26968;42.686;23.352;2024-03-07T06:12:02;95041.03;;;6.59;78.03
41234;BME280;26968;42.686;23.352;2024-03-07T06:14:29;95045.91;;;6.54;77.01
41234;BME280;26968;42.686;23.352;2024-03-07T06:16:55;95036.31;;;6.40;77.31
41234;BME280;26968;42.686;23.352;2024-03-07T06:19:29;95050.34;;;6.60;78.16
41234;BME280;26968;42.686;23.352;2024-03-07T06:21:56;95005.81;;;6.37;76.63
41234;BME280;26968;42.686;23.352;2024-03-07T06:24:21;95049.75;;;6.50;76.80
41234;BME280;26968;42.686;23.352;2024-03-07T06:26:48;95055.53;;;6.44;75.12
41234;BME280;26968;42.686;23.352;2024-03-07T06:29:25;95069.34;;;6.51;78.33
41234;BME280;26968;42.686;23.352;2024-03-07T06:31:54;95067.75;;;6.50;78.33
41234;BME280;26968;42.686;23.352;2024-03-07T06:34:19;95074.81;;;6.56;77.56
41234;BME280;26968;42.686;23.352;2024-03-07T06:36:45;94971.56;;;5.81;77.35
41234;BME280;26968;42.686;23.352;2024-03-07T06:39:10;95069.41;;;6.26;79.98
41234;BME280;26968;42.686;23.352;2024-03-07T06:41:37;95024.50;;;6.06;78.36
41234;BME280;26968;42.686;23.352;2024-03-07T06:44:03;95055.25;;;6.39;80.39
41234;BME280;26968;42.686;23.352;2024-03-07T06:46:29;95048.84;;;6.34;78.70
41234;BME280;26968;42.686;23.352;2024-03-07T06:48:55;95055.38;;;6.45;79.09
41234;BME280;26968;42.686;23.352;2024-03-07T06:51:23;95019.34;;;6.22;80.58
41234;BME280;26968;42.686;23.352;2024-03-07T06:53:50;95051.22;;;6.44;79.24
41234;BME280;26968;42.686;23.352;2024-03-07T06:56:21;95026.03;;;6.31;77.26
41234;BME280;26968;42.686;23.352;2024-03-07T06:59:30;95080.06;;;6.70;78.22
41234;BME280;26968;42.686;23.352;2024-03-07T07:02:52;95084.88;;;6.57;79.10
41234;BME280;26968;42.686;23.352;2024-03-07T07:06:02;95069.03;;;6.54;75.98
41234;BME280;26968;42.686;23.352;2024-03-07T07:09:03;94983.44;;;6.06;80.31
41234;BME280;26968;42.686;23.352;2024-03-07T07:11:31;95016.34;;;6.50;78.25
41234;BME280;26968;42.686;23.352;2024-03-07T07:13:56;95059.53;;;6.93;80.00
41234;BME280;26968;42.686;23.352;2024-03-07T07:16:22;95036.03;;;6.65;77.77
41234;BME280;26968;42.686;23.352;2024-03-07T07:18:55;95044.44;;;6.90;78.26
41234;BME280;26968;42.686;23.352;2024-03-07T07:21:21;95044.00;;;7.10;78.47
41234;BME280;26968;42.686;23.352;2024-03-07T07:23:46;95032.19;;;7.00;79.48
41234;BME280;26968;42.686;23.352;2024-03-07T07:26:12;95047.56;;;7.09;77.17
41234;BME280;26968;42.686;23.352;2024-03-07T07:28:37;95020.31;;;6.91;80.13
41234;BME280;26968;42.686;23.352;2024-03-07T07:31:03;95059.34;;;7.26;78.37
41234;BME280;26968;42.686;23.352;2024-03-07T07:33:29;95052.38;;;7.34;77.22
41234;BME280;26968;42.686;23.352;2024-03-07T07:35:56;95044.22;;;7.31;77.85
41234;BME280;26968;42.686;23.352;2024-03-07T07:38:22;95051.56;;;7.34;76.57
41234;BME280;26968;42.686;23.352;2024-03-07T07:40:48;95039.41;;;7.28;75.72
41234;BME280;26968;42.686;23.352;2024-03-07T07:43:15;95016.91;;;7.22;75.82
41234;BME280;26968;42.686;23.352;2024-03-07T07:45:40;95047.53;;;7.39;75.88
41234;BME280;26968;42.686;23.352;2024-03-07T07:48:07;95029.34;;;7.41;76.61
41234;BME280;26968;42.686;23.352;2024-03-07T07:50:32;95048.88;;;7.50;76.54
41234;BME280;26968;42.686;23.352;2024-03-07T07:52:59;95045.28;;;7.59;75.93
41234;BME280;26968;42.686;23.352;2024-03-07T07:55:28;95037.94;;;7.71;76.35
41234;BME280;26968;42.686;23.352;2024-03-07T07:57:54;95045.13;;;7.61;74.89
41234;BME280;26968;42.686;23.352;2024-03-07T08:00:22;95025.72;;;7.50;76.78
41234;BME280;26968;42.686;23.352;2024-03-07T08:02:55;95021.59;;;7.64;75.60
41234;BME280;26968;42.686;23.352;2024-03-07T08:05:22;94961.25;;;7.29;75.88
41234;BME280;26968;42.686;23.352;2024-03-07T08:07:49;94994.25;;;7.63;75.90
41234;BME280;26968;42.686;23.352;2024-03-07T08:10:17;95015.00;;;7.99;75.15
41234;BME280;26968;42.686;23.352;2024-03-07T08:12:42;95046.91;;;8.12;73.79
41234;BME280;26968;42.686;23.352;2024-03-07T08:15:09;95052.22;;;8.11;74.88
41234;BME280;26968;42.686;23.352;2024-03-07T08:17:34;95041.94;;;8.11;73.16
41234;BME280;26968;42.686;23.352;2024-03-07T08:20:00;95071.88;;;8.12;73.98
41234;BME280;26968;42.686;23.352;2024-03-07T08:22:26;95059.78;;;8.12;73.28
41234;BME280;26968;42.686;23.352;2024-03-07T08:24:51;95058.47;;;8.17;71.57
41234;BME280;26968;42.686;23.352;2024-03-07T08:27:17;95065.41;;;8.16;72.77
41234;BME280;26968;42.686;23.352;2024-03-07T08:29:43;95037.28;;;7.77;74.18
41234;BME280;26968;42.686;23.352;2024-03-07T08:32:08;95074.63;;;8.25;74.33
41234;BME280;26968;42.686;23.352;2024-03-07T08:34:34;95088.56;;;8.01;72.36
41234;BME280;26968;42.686;23.352;2024-03-07T08:36:59;95094.03;;;8.21;73.44
41234;BME280;26968;42.686;23.352;2024-03-07T08:39:24;95099.34;;;8.20;73.95
41234;BME280;26968;42.686;23.352;2024-03-07T08:41:50;95089.28;;;8.10;74.04
41234;BME280;26968;42.686;23.352;2024-03-07T08:44:15;95096.84;;;8.26;72.43
41234;BME280;26968;42.686;23.352;2024-03-07T08:46:41;95091.25;;;8.08;73.40
41234;BME280;26968;42.686;23.352;2024-03-07T08:49:08;95097.91;;;8.17;73.80
41234;BME280;26968;42.686;23.352;2024-03-07T08:51:36;95094.81;;;8.22;72.86
41234;BME280;26968;42.686;23.352;2024-03-07T08:54:01;95115.84;;;8.10;73.82
41234;BME280;26968;42.686;23.352;2024-03-07T08:56:27;95094.84;;;7.99;72.47
41234;BME280;26968;42.686;23.352;2024-03-07T08:58:53;95086.56;;;7.89;75.76
41234;BME280;26968;42.686;23.352;2024-03-07T09:01:19;95115.53;;;7.91;74.11
41234;BME280;26968;42.686;23.352;2024-03-07T09:03:49;95108.78;;;7.90;74.48
41234;BME280;26968;42.686;23.352;2024-03-07T09:06:15;95101.41;;;7.87;73.99
41234;BME280;26968;42.686;23.352;2024-03-07T09:08:44;95107.72;;;7.99;74.22
41234;BME280;26968;42.686;23.352;2024-03-07T09:11:10;95100.81;;;7.99;73.58
41234;BME280;26968;42.686;23.352;2024-03-07T09:13:35;95104.72;;;8.10;73.27
41234;BME280;26968;42.686;23.352;2024-03-07T09:16:02;95090.88;;;8.11;73.26
41234;BME280;26968;42.686;23.352;2024-03-07T09:18:30;95099.56;;;8.10;72.08
41234;BME280;26968;42.686;23.352;2024-03-07T09:20:55;95114.44;;;8.08;74.03
41234;BME280;26968;42.686;23.352;2024-03-07T09:23:21;95116.03;;;8.09;71.04
41234;BME280;26968;42.686;23.352;2024-03-07T09:25:46;95121.22;;;8.24;71.26
41234;BME280;26968;42.686;23.352;2024-03-07T09:28:13;95085.38;;;8.14;72.55
41234;BME280;26968;42.686;23.352;2024-03-07T09:30:38;95103.25;;;8.38;70.50
41234;BME280;26968;42.686;23.352;2024-03-07T09:33:04;95107.31;;;8.48;70.44
41234;BME280;26968;42.686;23.352;2024-03-07T09:35:30;95118.53;;;8.55;71.59
41234;BME280;26968;42.686;23.352;2024-03-07T09:37:55;95111.16;;;8.37;69.78
41234;BME280;26968;42.686;23.352;2024-03-07T09:40:21;95108.03;;;8.41;72.59
41234;BME280;26968;42.686;23.352;2024-03-07T09:42:50;95113.38;;;8.55;70.87
41234;BME280;26968;42.686;23.352;2024-03-07T09:45:22;95122.19;;;8.75;72.54
41234;BME280;26968;42.686;23.352;2024-03-07T09:47:50;95095.06;;;8.79;71.46
41234;BME280;26968;42.686;23.352;2024-03-07T09:50:18;95112.84;;;8.89;68.79
41234;BME280;26968;42.686;23.352;2024-03-07T09:52:48;95119.59;;;9.04;69.32
41234;BME280;26968;42.686;23.352;2024-03-07T09:55:18;95092.56;;;8.86;69.60
41234;BME280;26968;42.686;23.352;2024-03-07T09:57:48;95120.72;;;9.02;68.32
41234;BME280;26968;42.686;23.352;2024-03-07T10:00:20;95112.22;;;8.87;69.13
41234;BME280;26968;42.686;23.352;2024-03-07T10:03:12;95109.38;;;8.81;69.86
41234;BME280;26968;42.686;23.352;2024-03-07T10:05:44;95106.25;;;9.01;68.95
41234;BME280;26968;42.686;23.352;2024-03-07T10:08:11;95106.06;;;9.02;70.36
41234;BME280;26968;42.686;23.352;2024-03-07T10:10:37;95081.88;;;8.74;72.46
41234;BME280;26968;42.686;23.352;2024-03-07T10:13:03;95072.63;;;8.94;73.04
41234;BME280;26968;42.686;23.352;2024-03-07T10:15:30;95090.63;;;9.24;72.75
41234;BME280;26968;42.686;23.352;2024-03-07T10:17:56;95070.28;;;9.14;73.64
41234;BME280;26968;42.686;23.352;2024-03-07T10:20:22;95080.34;;;9.45;72.83
41234;BME280;26968;42.686;23.352;2024-03-07T10:22:48;95060.97;;;9.56;71.28
41234;BME280;26968;42.686;23.352;2024-03-07T10:25:17;95083.63;;;9.75;69.95
41234;BME280;26968;42.686;23.352;2024-03-07T10:27:46;95068.69;;;9.98;68.10
41234;BME280;26968;42.686;23.352;2024-03-07T10:30:17;95065.41;;;10.11;67.87
41234;BME280;26968;42.686;23.352;2024-03-07T10:33:00;95064.88;;;9.94;68.27
41234;BME280;26968;42.686;23.352;2024-03-07T10:35:26;95060.47;;;10.16;67.92
41234;BME280;26968;42.686;23.352;2024-03-07T10:37:55;95082.41;;;10.48;67.34
41234;BME280;26968;42.686;23.352;2024-03-07T10:40:24;95071.72;;;10.02;65.57
41234;BME280;26968;42.686;23.352;2024-03-07T10:42:56;95075.88;;;10.24;66.86
41234;BME280;26968;42.686;23.352;2024-03-07T10:45:22;95063.69;;;10.18;66.33
41234;BME280;26968;42.686;23.352;2024-03-07T10:47:57;95081.56;;;10.41;65.65
41234;BME280;26968;42.686;23.352;2024-03-07T10:53:22;95081.44;;;10.00;67.35
41234;BME280;26968;42.686;23.352;2024-03-07T10:56:14;95078.00;;;9.93;65.06
41234;BME280;26968;42.686;23.352;2024-03-07T10:59:01;95077.63;;;9.96;66.47
41234;BME280;26968;42.686;23.352;2024-03-07T11:01:33;95084.47;;;10.10;66.33
41234;BME280;26968;42.686;23.352;2024-03-07T11:04:01;95069.16;;;9.59;66.13
41234;BME280;26968;42.686;23.352;2024-03-07T11:06:31;95059.50;;;9.46;66.05
41234;BME280;26968;42.686;23.352;2024-03-07T11:09:00;95062.13;;;9.53;67.21
41234;BME280;26968;42.686;23.352;2024-03-07T11:11:26;95025.38;;;9.30;67.82
41234;BME280;26968;42.686;23.352;2024-03-07T11:13:55;95054.16;;;9.69;69.57
41234;BME280;26968;42.686;23.352;2024-03-07T11:16:27;95064.59;;;9.82;66.18
41234;BME280;26968;42.686;23.352;2024-03-07T11:19:27;95063.25;;;9.86;69.10
41234;BME280;26968;42.686;23.352;2024-03-07T11:21:56;95065.94;;;9.78;67.82
41234;BME280;26968;42.686;23.352;2024-03-07T11:24:26;95031.47;;;9.43;67.97
41234;BME280;26968;42.686;23.352;2024-03-07T11:26:55;95038.69;;;9.33;69.25
41234;BME280;26968;42.686;23.352;2024-03-07T11:32:15;95049.84;;;9.55;68.41
41234;BME280;26968;42.686;23.352;2024-03-07T11:34:43;95050.91;;;9.61;70.33
41234;BME280;26968;42.686;23.352;2024-03-07T11:37:38;95041.13;;;9.56;67.06
41234;BME280;26968;42.686;23.352;2024-03-07T11:40:42;95040.31;;;9.56;69.51
41234;BME280;26968;42.686;23.352;2024-03-07T11:43:01;95047.13;;;9.63;70.36
41234;BME280;26968;42.686;23.352;2024-03-07T11:45:30;95045.66;;;9.75;69.10
41234;BME280;26968;42.686;23.352;2024-03-07T11:47:59;95025.31;;;9.66;66.77
41234;BME280;26968;42.686;23.352;2024-03-07T11:50:29;95047.06;;;9.78;70.10
41234;BME280;26968;42.686;23.352;2024-03-07T11:53:01;95040.44;;;9.97;67.34
41234;BME280;26968;42.686;23.352;2024-03-07T11:55:27;95038.03;;;9.88;65.90
41234;BME280;26968;42.686;23.352;2024-03-07T11:58:28;95012.31;;;9.80;68.04
41234;BME280;26968;42.686;23.352;2024-03-07T12:00:57;95042.53;;;10.08;66.62
41234;BME280;26968;42.686;23.352;2024-03-07T12:03:23;95034.56;;;9.81;67.69
41234;BME280;26968;42.686;23.352;2024-03-07T12:05:51;95029.66;;;9.86;68.90
41234;BME280;26968;42.686;23.352;2024-03-07T12:08:17;95014.66;;;9.75;68.93
41234;BME280;26968;42.686;23.352;2024-03-07T12:10:44;95029.47;;;9.88;68.24
41234;BME280;26968;42.686;23.352;2024-03-07T12:13:10;95008.16;;;9.58;66.98
41234;BME280;26968;42.686;23.352;2024-03-07T12:15:37;95036.06;;;9.91;66.28
41234;BME280;26968;42.686;23.352;2024-03-07T12:18:04;95027.06;;;9.86;66.00
41234;BME280;26968;42.686;23.352;2024-03-07T12:20:35;95034.34;;;9.55;65.85
41234;BME280;26968;42.686;23.352;2024-03-07T12:23:01;95001.72;;;9.26;67.77
41234;BME280;26968;42.686;23.352;2024-03-07T12:25:37;95021.59;;;9.47;67.48
41234;BME280;26968;42.686;23.352;2024-03-07T12:30:32;95030.78;;;9.35;68.32
41234;BME280;26968;42.686;23.352;2024-03-07T12:33:00;95019.47;;;9.36;66.04
41234;BME280;26968;42.686;23.352;2024-03-07T12:35:26;95026.66;;;9.40;67.81
41234;BME280;26968;42.686;23.352;2024-03-07T12:37:52;95035.06;;;9.06;69.81
41234;BME280;26968;42.686;23.352;2024-03-07T12:40:19;95036.28;;;9.10;69.94
41234;BME280;26968;42.686;23.352;2024-03-07T12:42:50;95039.09;;;8.94;68.03
41234;BME280;26968;42.686;23.352;2024-03-07T12:45:18;95042.16;;;9.04;68.65
41234;BME280;26968;42.686;23.352;2024-03-07T12:47:45;95008.06;;;8.73;67.40
41234;BME280;26968;42.686;23.352;2024-03-07T12:50:12;95023.06;;;8.99;68.62
41234;BME280;26968;42.686;23.352;2024-03-07T12:52:38;95023.03;;;9.13;68.58
41234;BME280;26968;42.686;23.352;2024-03-07T12:55:06;95008.00;;;9.02;67.09
41234;BME280;26968;42.686;23.352;2024-03-07T12:57:31;95012.25;;;8.74;69.59
41234;BME280;26968;42.686;23.352;2024-03-07T12:59:57;95026.06;;;9.02;67.45
41234;BME280;26968;42.686;23.352;2024-03-07T13:02:22;95020.69;;;8.97;68.23
41234;BME280;26968;42.686;23.352;2024-03-07T13:04:53;95017.13;;;9.20;67.11
41234;BME280;26968;42.686;23.352;2024-03-07T13:07:18;95027.72;;;9.25;66.24
41234;BME280;26968;42.686;23.352;2024-03-07T13:09:44;95012.16;;;9.39;68.45
41234;BME280;26968;42.686;23.352;2024-03-07T13:12:12;95013.22;;;9.45;66.48